Time;durP1;ratioP1;P1;durP2;ratioP2;P2;SDS_P1;SDS_P2;PMS_P1;PMS_P2;Temp;Humidity;BMP_temperature;BMP_pressure;BME280_temperature;BME280_humidity;BME280_pressure;Samples;Min_cycle;Max_cycle;Signal;HPM_P1;HPM_P2
2023/01/07 00:09:20;;;;;;;1999.90;999.90;;;10.90;99.90;;;;;;6668462;88;20192;-77
2023/01/07 00:19:21;;;;;;;1999.90;999.90;;;10.90;99.90;;;;;;6647271;89;20644;-77
2023/01/07 00:29:21;;;;;;;1999.90;999.90;;;10.60;99.90;;;;;;6642504;89;20196;-77
2023/01/07 00:39:22;;;;;;;1999.90;999.90;;;10.60;99.90;;;;;;6643476;88;20193;-78
2023/01/07 00:49:25;;;;;;;1999.90;999.90;;;10.50;99.90;;;;;;6642416;88;20299;-77
2023/01/07 00:59:26;;;;;;;1999.90;999.90;;;10.60;99.90;;;;;;6646875;88;20230;-78
2023/01/07 01:09:26;;;;;;;1999.90;999.90;;;10.60;99.90;;;;;;6648763;88;20177;-77
2023/01/07 01:19:27;;;;;;;1999.90;999.90;;;10.70;99.90;;;;;;6660601;88;20232;-78
2023/01/07 01:29:27;;;;;;;1999.90;999.90;;;10.60;99.90;;;;;;6652587;88;20245;-77
2023/01/07 01:39:28;;;;;;;1999.90;999.90;;;10.50;99.90;;;;;;6656308;88;20251;-76
2023/01/07 01:49:37;;;;;;;1999.90;999.90;;;10.30;99.90;;;;;;6656227;88;20280;-76
2023/01/07 01:59:40;;;;;;;1999.90;999.90;;;10.10;99.90;;;;;;6667987;88;20223;-77
2023/01/07 02:09:41;;;;;;;1999.90;999.90;;;9.80;99.90;;;;;;6662776;88;20217;-77
2023/01/07 02:20:02;;;;;;;1999.90;999.90;;;9.70;99.90;;;;;;6661461;88;20616;-78
2023/01/07 02:30:34;;;;;;;1999.90;999.90;;;9.80;99.90;;;;;;6656747;88;20217;-76
2023/01/07 02:41:01;;;;;;;1999.90;999.90;;;9.90;99.90;;;;;;6682677;88;20650;-76
2023/01/07 02:51:02;;;;;;;1999.90;999.90;;;9.90;99.90;;;;;;6663481;88;20177;-76
2023/01/07 03:01:30;;;;;;;1999.90;999.90;;;10.10;99.90;;;;;;6661621;88;20399;-76
2023/01/07 03:11:38;;;;;;;1999.90;999.90;;;10.20;99.90;;;;;;6652462;88;20187;-76
2023/01/07 03:21:38;;;;;;;1999.90;999.90;;;10.20;99.90;;;;;;6650891;88;20189;-77
2023/01/07 03:31:57;;;;;;;1999.90;999.90;;;10.10;99.90;;;;;;6653388;88;20689;-76
2023/01/07 03:52:16;;;;;;;1999.90;999.90;;;10.10;99.90;;;;;;6648055;88;20177;-77
2023/01/07 04:02:17;;;;;;;1999.90;999.90;;;10.00;99.90;;;;;;6651888;88;20201;-78
2023/01/07 04:12:18;;;;;;;1999.90;999.90;;;10.00;99.90;;;;;;6655810;88;20248;-77
2023/01/07 04:22:18;;;;;;;1999.90;999.90;;;10.20;99.90;;;;;;6656045;88;20221;-76
2023/01/07 04:32:19;;;;;;;1999.90;999.90;;;10.30;99.90;;;;;;6659315;88;20529;-77
2023/01/07 04:42:19;;;;;;;1999.90;999.90;;;10.30;99.90;;;;;;6655596;88;20202;-77
2023/01/07 04:52:20;;;;;;;1999.90;999.90;;;10.20;99.90;;;;;;6657825;88;20259;-77
2023/01/07 05:02:20;;;;;;;1999.90;999.90;;;10.20;99.90;;;;;;6669862;88;20790;-76
2023/01/07 05:12:21;;;;;;;1999.90;999.90;;;10.10;99.90;;;;;;6653307;88;20566;-78
2023/01/07 05:22:21;;;;;;;1999.90;999.90;;;10.00;99.90;;;;;;6668988;88;20309;-77
2023/01/07 05:32:22;;;;;;;1999.90;999.90;;;10.00;99.90;;;;;;6654637;88;20293;-77
2023/01/07 05:42:22;;;;;;;1999.90;999.90;;;10.00;99.90;;;;;;6650705;89;20234;-76
2023/01/07 05:52:23;;;;;;;1999.90;999.90;;;10.10;99.90;;;;;;6659370;88;20193;-77
2023/01/07 06:02:23;;;;;;;1999.90;999.90;;;10.10;99.90;;;;;;6667602;88;20293;-77
2023/01/07 06:12:24;;;;;;;1999.90;999.90;;;10.00;99.90;;;;;;6638324;76;20331;-75
2023/01/07 06:22:24;;;;;;;1999.90;999.90;;;10.10;99.90;;;;;;6632327;88;20189;-74
2023/01/07 06:32:25;;;;;;;1999.90;999.90;;;10.00;99.90;;;;;;6627847;89;20790;-74
2023/01/07 06:42:25;;;;;;;1999.90;999.90;;;10.00;99.90;;;;;;6636758;88;20193;-75
2023/01/07 06:52:26;;;;;;;1999.90;999.90;;;10.10;99.90;;;;;;6638402;88;20206;-75
2023/01/07 07:02:27;;;;;;;1999.90;999.90;;;10.10;99.90;;;;;;6629570;89;20583;-75
2023/01/07 07:12:27;;;;;;;1999.90;999.90;;;10.10;99.90;;;;;;6637055;88;20636;-75
2023/01/07 07:22:28;;;;;;;1999.90;999.90;;;10.00;99.90;;;;;;6642788;88;20304;-75
2023/01/07 07:32:28;;;;;;;1999.90;999.90;;;10.00;99.90;;;;;;6630014;89;20185;-76
2023/01/07 07:42:29;;;;;;;1999.90;999.90;;;10.00;99.90;;;;;;6631715;89;20766;-76
2023/01/07 07:52:30;;;;;;;1999.90;999.90;;;10.00;99.90;;;;;;6631940;89;20266;-75
2023/01/07 08:02:30;;;;;;;1999.90;999.90;;;9.90;99.90;;;;;;6630194;89;20263;-75
2023/01/07 08:12:31;;;;;;;1999.90;999.90;;;10.00;99.90;;;;;;6629934;88;20194;-75
2023/01/07 08:22:32;;;;;;;1999.90;999.90;;;9.90;99.90;;;;;;6629541;88;20205;-75
2023/01/07 08:32:32;;;;;;;1999.90;999.90;;;10.00;99.90;;;;;;6628337;88;20376;-75
2023/01/07 08:42:33;;;;;;;1999.90;999.90;;;10.00;99.90;;;;;;6629278;89;20583;-76
2023/01/07 08:52:34;;;;;;;1999.90;999.90;;;10.00;99.90;;;;;;6628640;88;20222;-75
2023/01/07 09:02:34;;;;;;;1999.90;999.90;;;10.10;99.90;;;;;;6625504;88;20214;-75
2023/01/07 09:12:35;;;;;;;1999.90;999.90;;;10.10;99.90;;;;;;6631583;89;20231;-75
2023/01/07 09:22:36;;;;;;;1999.90;999.90;;;10.10;99.90;;;;;;6632554;88;20696;-75
2023/01/07 09:32:37;;;;;;;1999.90;999.90;;;10.20;99.90;;;;;;6648663;88;20239;-74
2023/01/07 09:42:47;;;;;;;1999.90;999.90;;;10.60;99.90;;;;;;6632203;88;20193;-75
2023/01/07 09:52:52;;;;;;;1999.90;999.90;;;11.00;99.90;;;;;;6627823;89;20262;-75
2023/01/07 10:03:16;;;;;;;1999.90;999.90;;;11.20;99.90;;;;;;6639626;88;20225;-75
2023/01/07 10:13:54;;;;;;;1999.90;999.90;;;10.90;99.90;;;;;;6635781;88;20224;-76
2023/01/07 10:24:02;;;;;;;1999.90;999.90;;;11.20;99.90;;;;;;6630355;88;20193;-75
2023/01/07 10:34:12;;;;;;;1999.90;999.90;;;11.70;99.90;;;;;;6622864;88;20307;-75
2023/01/07 10:44:56;;;;;;;1999.90;999.90;;;11.60;99.90;;;;;;6629713;88;20726;-76
2023/01/07 10:55:03;;;;;;;1999.90;999.90;;;11.40;99.90;;;;;;6646353;88;21002;-76
2023/01/07 11:05:04;;;;;;;1999.90;999.90;;;11.30;99.90;;;;;;6645252;88;20221;-76
2023/01/07 11:15:22;;;;;;;1999.90;999.90;;;11.30;99.90;;;;;;6639763;88;20215;-75
2023/01/07 11:25:27;;;;;;;1999.90;999.90;;;11.30;99.90;;;;;;6626020;88;20229;-75
2023/01/07 11:35:28;;;;;;;1999.90;999.90;;;11.30;99.90;;;;;;6645495;88;20217;-74
2023/01/07 11:45:35;;;;;;;1999.90;999.90;;;11.40;99.90;;;;;;6647457;88;20174;-74
2023/01/07 11:55:35;;;;;;;1999.90;999.90;;;11.40;99.90;;;;;;6653499;88;20616;-76
2023/01/07 12:05:37;;;;;;;1999.90;999.90;;;11.50;99.90;;;;;;6636168;77;20227;-79
2023/01/07 12:15:50;;;;;;;1999.90;999.90;;;11.60;99.90;;;;;;6657564;88;20645;-77
2023/01/07 12:25:56;;;;;;;1999.90;999.90;;;11.70;99.90;;;;;;6646706;88;20184;-76
2023/01/07 12:36:04;;;;;;;1999.90;999.90;;;11.70;99.90;;;;;;6645812;88;20232;-76
2023/01/07 12:46:09;;;;;;;1999.90;999.90;;;11.80;99.90;;;;;;6645920;88;20269;-75
2023/01/07 12:56:20;;;;;;;1999.90;999.90;;;11.80;99.90;;;;;;6649343;88;20250;-75
2023/01/07 13:06:32;;;;;;;1999.90;999.90;;;11.70;99.90;;;;;;6648248;88;20254;-76
2023/01/07 13:16:32;;;;;;;1999.90;999.90;;;11.80;99.90;;;;;;6648889;88;20184;-74
2023/01/07 13:26:48;;;;;;;1999.90;999.90;;;11.90;99.90;;;;;;6648181;88;21144;-77
2023/01/07 13:37:17;;;;;;;1999.90;999.90;;;11.90;99.90;;;;;;6656825;88;20181;-77
2023/01/07 13:47:21;;;;;;;1999.90;999.90;;;11.80;99.90;;;;;;6651736;88;20177;-78
2023/01/07 13:57:30;;;;;;;1999.90;999.90;;;11.80;99.90;;;;;;6665199;88;20213;-77
2023/01/07 14:07:42;;;;;;;1999.90;999.90;;;11.90;99.90;;;;;;6652036;89;20205;-77
2023/01/07 14:18:17;;;;;;;1999.90;999.90;;;11.90;99.90;;;;;;6646630;88;20205;-76
2023/01/07 14:28:38;;;;;;;1999.90;999.90;;;12.10;99.90;;;;;;6652642;88;20603;-78
2023/01/07 14:38:42;;;;;;;1999.90;999.90;;;12.00;99.90;;;;;;6646688;88;20197;-77
2023/01/07 14:48:42;;;;;;;1999.90;999.90;;;11.80;99.90;;;;;;6668062;88;20203;-77
2023/01/07 14:59:03;;;;;;;1999.90;999.90;;;11.70;99.90;;;;;;6652632;89;20745;-77
2023/01/07 15:19:39;;;;;;;1999.90;999.90;;;11.10;99.90;;;;;;6656271;89;20171;-77
2023/01/07 15:30:03;;;;;;;1999.90;999.90;;;10.90;99.90;;;;;;6670394;88;20207;-77
2023/01/07 15:40:05;;;;;;;1999.90;999.90;;;10.80;99.90;;;;;;6656052;88;20792;-78
2023/01/07 15:50:29;;;;;;;1999.90;999.90;;;10.70;99.90;;;;;;6658878;88;20268;-76
2023/01/07 16:00:30;;;;;;;1999.90;999.90;;;10.60;99.90;;;;;;6653293;88;20718;-78
2023/01/07 16:10:33;;;;;;;1999.90;999.90;;;10.40;99.90;;;;;;6648784;88;20248;-77
2023/01/07 16:20:55;;;;;;;1999.90;999.90;;;10.40;99.90;;;;;;6653756;88;20207;-77
2023/01/07 16:30:56;;;;;;;1999.90;999.90;;;10.30;99.90;;;;;;6655169;88;20196;-76
2023/01/07 16:40:57;;;;;;;1999.90;999.90;;;10.20;99.90;;;;;;6658445;88;20722;-75
2023/01/07 16:50:57;;;;;;;1999.90;999.90;;;10.10;99.90;;;;;;6658668;88;20223;-76
2023/01/07 17:01:00;;;;;;;1999.90;999.90;;;10.00;99.90;;;;;;6655786;88;20553;-75
2023/01/07 17:11:35;;;;;;;1999.90;999.90;;;9.90;99.90;;;;;;6656174;88;20196;-76
2023/01/07 17:21:42;;;;;;;1999.90;999.90;;;10.00;99.90;;;;;;6654869;88;20234;-76
2023/01/07 17:31:43;;;;;;;1999.90;999.90;;;10.00;99.90;;;;;;6650373;88;20230;-76
2023/01/07 17:52:02;;;;;;;1999.90;999.90;;;10.10;99.90;;;;;;6651965;88;20192;-75
2023/01/07 18:02:04;;;;;;;1999.90;999.90;;;10.00;99.90;;;;;;6653657;89;20210;-75
2023/01/07 18:22:27;;;;;;;1999.90;999.90;;;10.10;99.90;;;;;;6650183;89;20185;-75
2023/01/07 18:32:27;;;;;;;1999.90;999.90;;;10.30;99.90;;;;;;6654903;89;20214;-75
2023/01/07 18:42:30;;;;;;;1999.90;999.90;;;10.20;99.90;;;;;;6654028;89;20209;-75
2023/01/07 18:52:32;;;;;;;1999.90;999.90;;;10.20;99.90;;;;;;6652982;88;20619;-76
2023/01/07 19:02:34;;;;;;;1999.90;999.90;;;10.10;99.90;;;;;;6657514;89;20614;-77
2023/01/07 19:12:34;;;;;;;1999.90;999.90;;;10.20;99.90;;;;;;6653585;88;20629;-75
2023/01/07 19:22:35;;;;;;;1999.90;999.90;;;10.10;99.90;;;;;;6654383;89;20199;-76
2023/01/07 19:32:35;;;;;;;1999.90;999.90;;;10.10;99.90;;;;;;6655491;89;20220;-76
2023/01/07 19:42:36;;;;;;;1999.90;999.90;;;10.20;99.90;;;;;;6654669;89;20802;-77
2023/01/07 19:52:37;;;;;;;1999.90;999.90;;;10.40;99.90;;;;;;6658160;88;20187;-77
2023/01/07 20:02:37;;;;;;;1999.90;999.90;;;10.70;99.90;;;;;;6657027;88;20201;-75
2023/01/07 20:12:38;;;;;;;1999.90;999.90;;;11.20;99.90;;;;;;6650972;88;20194;-76
2023/01/07 20:22:39;;;;;;;1999.90;999.90;;;11.40;99.90;;;;;;6652839;88;20211;-77
2023/01/07 20:32:39;;;;;;;1999.90;999.90;;;11.40;99.90;;;;;;6655242;88;20495;-78
2023/01/07 20:42:40;;;;;;;1999.90;999.90;;;11.40;99.90;;;;;;6649393;88;20274;-78
2023/01/07 20:52:40;;;;;;;1999.90;999.90;;;11.40;99.90;;;;;;6648879;88;20193;-77
2023/01/07 21:02:41;;;;;;;1999.90;999.90;;;11.40;99.90;;;;;;6650408;89;20324;-78
2023/01/07 21:12:42;;;;;;;1999.90;999.90;;;11.40;99.90;;;;;;6667832;88;20203;-78
2023/01/07 21:22:42;;;;;;;1999.90;999.90;;;11.40;99.90;;;;;;6661249;89;20826;-77
2023/01/07 21:32:43;;;;;;;1999.90;999.90;;;11.40;99.90;;;;;;6652942;88;20793;-78
2023/01/07 21:42:44;;;;;;;1999.90;999.90;;;11.50;99.90;;;;;;6660232;88;20496;-77
2023/01/07 21:52:44;;;;;;;1999.90;999.90;;;11.40;99.90;;;;;;6642715;88;20211;-77
2023/01/07 22:02:45;;;;;;;1999.90;999.90;;;11.40;99.90;;;;;;6640851;88;20199;-76
2023/01/07 22:12:45;;;;;;;1999.90;999.90;;;11.40;99.90;;;;;;6641963;88;20332;-76
2023/01/07 22:22:47;;;;;;;1999.90;999.90;;;11.30;99.90;;;;;;6643344;88;20332;-76
2023/01/07 22:32:47;;;;;;;1999.90;999.90;;;11.30;99.90;;;;;;6648802;88;20612;-77
2023/01/07 22:42:56;;;;;;;1999.90;999.90;;;11.20;99.90;;;;;;6644287;88;20196;-77
2023/01/07 22:52:56;;;;;;;1999.90;999.90;;;11.20;99.90;;;;;;6651255;88;20287;-77
2023/01/07 23:02:57;;;;;;;1999.90;999.90;;;11.10;99.90;;;;;;6645395;88;20211;-77
2023/01/07 23:12:58;;;;;;;1999.90;999.90;;;11.00;99.90;;;;;;6644788;88;20221;-77
2023/01/07 23:22:59;;;;;;;1999.90;999.90;;;11.00;99.90;;;;;;6643966;89;20207;-77
2023/01/07 23:33:00;;;;;;;1999.90;999.90;;;11.10;99.90;;;;;;6651870;88;20176;-77
2023/01/07 23:43:01;;;;;;;1999.90;999.90;;;11.10;99.90;;;;;;6646863;88;20277;-77
2023/01/07 23:53:01;;;;;;;1999.90;999.90;;;11.10;99.90;;;;;;6645573;88;20205;-77
